Linwood, Texas
Current Conditions -  °F | °C
As of 9:55 AM on Friday 28 Nov 2014 (Local Time) from KJSO Reporting Station
Clear Clear  
Wind Chill: 52°   Ceiling: Unl
Heat Index: 52°   Visibility: 10mi
Dew Point: 40°   Wind: 9mph
Humidity: 63%   Direction: 150°SSE
Pressure: 30.34"   Gusts: NA
Location:  31.6384°N, 95.0772°W
Report Text: KJSO 281555Z AUTO 15008KT 10SM CLR 11/04 A3034 RMK AO2 T01110042
Loading
Personal Weather Stations






























Interactive Weather Map New forecast layout! Learn more

10-Day Weather Forecast

Advertisements
Track Severe Weather on mobile